sensor_id;sensor_type;location;lat;lon;timestamp;P1;durP1;ratioP1;P2;durP2;ratioP2
1949;SDS011;975;48.760;9.152;2023-04-19T00:01:07;11.38;;;6.22;;
1949;SDS011;975;48.760;9.152;2023-04-19T00:03:35;13.80;;;6.90;;
1949;SDS011;975;48.760;9.152;2023-04-19T00:06:03;12.50;;;6.10;;
1949;SDS011;975;48.760;9.152;2023-04-19T00:08:32;12.02;;;6.90;;
1949;SDS011;975;48.760;9.152;2023-04-19T00:11:01;14.07;;;7.00;;
1949;SDS011;975;48.760;9.152;2023-04-19T00:13:29;12.35;;;6.65;;
1949;SDS011;975;48.760;9.152;2023-04-19T00:15:56;14.50;;;7.10;;
1949;SDS011;975;48.760;9.152;2023-04-19T00:18:23;11.75;;;6.10;;
1949;SDS011;975;48.760;9.152;2023-04-19T00:20:51;14.27;;;6.18;;
1949;SDS011;975;48.760;9.152;2023-04-19T00:23:18;11.43;;;6.55;;
1949;SDS011;975;48.760;9.152;2023-04-19T00:25:47;12.75;;;6.65;;
1949;SDS011;975;48.760;9.152;2023-04-19T00:28:16;14.23;;;6.95;;
1949;SDS011;975;48.760;9.152;2023-04-19T00:30:44;14.50;;;7.60;;
1949;SDS011;975;48.760;9.152;2023-04-19T00:33:11;11.88;;;6.20;;
1949;SDS011;975;48.760;9.152;2023-04-19T00:35:39;14.70;;;7.05;;
1949;SDS011;975;48.760;9.152;2023-04-19T00:38:07;11.85;;;7.55;;
1949;SDS011;975;48.760;9.152;2023-04-19T00:40:35;15.65;;;7.72;;
1949;SDS011;975;48.760;9.152;2023-04-19T00:43:02;13.23;;;6.85;;
1949;SDS011;975;48.760;9.152;2023-04-19T00:45:31;12.80;;;7.53;;
1949;SDS011;975;48.760;9.152;2023-04-19T00:48:01;13.15;;;7.35;;
1949;SDS011;975;48.760;9.152;2023-04-19T00:50:28;13.60;;;7.07;;
1949;SDS011;975;48.760;9.152;2023-04-19T00:52:56;12.23;;;7.20;;
1949;SDS011;975;48.760;9.152;2023-04-19T00:55:24;13.50;;;7.07;;
1949;SDS011;975;48.760;9.152;2023-04-19T00:57:52;13.48;;;7.57;;
1949;SDS011;975;48.760;9.152;2023-04-19T01:00:19;12.35;;;7.03;;
1949;SDS011;975;48.760;9.152;2023-04-19T01:02:48;14.75;;;8.50;;
1949;SDS011;975;48.760;9.152;2023-04-19T01:05:16;15.40;;;7.65;;
1949;SDS011;975;48.760;9.152;2023-04-19T01:07:43;12.77;;;6.53;;
1949;SDS011;975;48.760;9.152;2023-04-19T01:10:11;12.65;;;6.60;;
1949;SDS011;975;48.760;9.152;2023-04-19T01:12:38;14.15;;;6.97;;
1949;SDS011;975;48.760;9.152;2023-04-19T01:15:06;11.85;;;7.28;;
1949;SDS011;975;48.760;9.152;2023-04-19T01:17:34;15.10;;;7.10;;
1949;SDS011;975;48.760;9.152;2023-04-19T01:20:03;13.20;;;6.75;;
1949;SDS011;975;48.760;9.152;2023-04-19T01:25:03;16.33;;;8.10;;
1949;SDS011;975;48.760;9.152;2023-04-19T01:27:31;15.25;;;7.53;;
1949;SDS011;975;48.760;9.152;2023-04-19T01:29:59;14.48;;;7.63;;
1949;SDS011;975;48.760;9.152;2023-04-19T01:32:26;13.98;;;7.65;;
1949;SDS011;975;48.760;9.152;2023-04-19T01:34:54;14.52;;;7.38;;
1949;SDS011;975;48.760;9.152;2023-04-19T01:37:22;15.60;;;8.13;;
1949;SDS011;975;48.760;9.152;2023-04-19T01:39:50;15.05;;;7.50;;
1949;SDS011;975;48.760;9.152;2023-04-19T01:42:19;15.13;;;7.78;;
1949;SDS011;975;48.760;9.152;2023-04-19T01:44:47;16.42;;;8.05;;
1949;SDS011;975;48.760;9.152;2023-04-19T01:47:14;16.30;;;7.50;;
1949;SDS011;975;48.760;9.152;2023-04-19T01:49:42;13.07;;;7.78;;
1949;SDS011;975;48.760;9.152;2023-04-19T01:52:09;17.25;;;8.45;;
1949;SDS011;975;48.760;9.152;2023-04-19T01:54:37;15.88;;;7.68;;
1949;SDS011;975;48.760;9.152;2023-04-19T01:57:04;23.00;;;8.73;;
1949;SDS011;975;48.760;9.152;2023-04-19T01:59:33;14.75;;;8.10;;
1949;SDS011;975;48.760;9.152;2023-04-19T02:02:01;15.52;;;8.10;;
1949;SDS011;975;48.760;9.152;2023-04-19T02:04:28;15.07;;;7.97;;
1949;SDS011;975;48.760;9.152;2023-04-19T02:06:56;16.20;;;7.68;;
1949;SDS011;975;48.760;9.152;2023-04-19T02:09:23;16.10;;;8.65;;
1949;SDS011;975;48.760;9.152;2023-04-19T02:11:51;15.52;;;8.52;;
1949;SDS011;975;48.760;9.152;2023-04-19T02:14:18;13.50;;;7.85;;
1949;SDS011;975;48.760;9.152;2023-04-19T02:16:47;16.70;;;8.02;;
1949;SDS011;975;48.760;9.152;2023-04-19T02:19:15;15.88;;;7.97;;
1949;SDS011;975;48.760;9.152;2023-04-19T02:21:42;16.65;;;8.23;;
1949;SDS011;975;48.760;9.152;2023-04-19T02:24:10;20.63;;;9.13;;
1949;SDS011;975;48.760;9.152;2023-04-19T02:26:37;17.35;;;8.43;;
1949;SDS011;975;48.760;9.152;2023-04-19T02:29:05;17.75;;;8.52;;
1949;SDS011;975;48.760;9.152;2023-04-19T02:31:32;17.95;;;8.20;;
1949;SDS011;975;48.760;9.152;2023-04-19T02:34:02;15.63;;;8.40;;
1949;SDS011;975;48.760;9.152;2023-04-19T02:36:29;16.35;;;9.18;;
1949;SDS011;975;48.760;9.152;2023-04-19T02:38:58;18.13;;;8.90;;
1949;SDS011;975;48.760;9.152;2023-04-19T02:41:25;19.20;;;9.25;;
1949;SDS011;975;48.760;9.152;2023-04-19T02:43:53;21.63;;;9.35;;
1949;SDS011;975;48.760;9.152;2023-04-19T02:46:22;18.70;;;8.48;;
1949;SDS011;975;48.760;9.152;2023-04-19T02:48:49;17.20;;;8.75;;
1949;SDS011;975;48.760;9.152;2023-04-19T02:51:18;20.52;;;9.18;;
1949;SDS011;975;48.760;9.152;2023-04-19T02:53:46;19.65;;;9.13;;
1949;SDS011;975;48.760;9.152;2023-04-19T02:56:13;17.50;;;8.68;;
1949;SDS011;975;48.760;9.152;2023-04-19T02:58:41;17.40;;;8.93;;
1949;SDS011;975;48.760;9.152;2023-04-19T03:01:08;15.55;;;8.90;;
1949;SDS011;975;48.760;9.152;2023-04-19T03:03:36;18.75;;;9.30;;
1949;SDS011;975;48.760;9.152;2023-04-19T03:06:04;19.83;;;9.30;;
1949;SDS011;975;48.760;9.152;2023-04-19T03:11:02;17.10;;;9.13;;
1949;SDS011;975;48.760;9.152;2023-04-19T03:13:29;19.65;;;8.88;;
1949;SDS011;975;48.760;9.152;2023-04-19T03:15:57;20.85;;;10.52;;
1949;SDS011;975;48.760;9.152;2023-04-19T03:18:24;19.40;;;9.30;;
1949;SDS011;975;48.760;9.152;2023-04-19T03:20:52;18.25;;;9.75;;
1949;SDS011;975;48.760;9.152;2023-04-19T03:23:20;18.27;;;9.73;;
1949;SDS011;975;48.760;9.152;2023-04-19T03:25:47;16.13;;;8.77;;
1949;SDS011;975;48.760;9.152;2023-04-19T03:28:16;18.10;;;9.45;;
1949;SDS011;975;48.760;9.152;2023-04-19T03:30:44;20.35;;;9.85;;
1949;SDS011;975;48.760;9.152;2023-04-19T03:33:12;20.20;;;9.63;;
1949;SDS011;975;48.760;9.152;2023-04-19T03:35:39;18.80;;;9.73;;
1949;SDS011;975;48.760;9.152;2023-04-19T03:38:07;17.90;;;8.90;;
1949;SDS011;975;48.760;9.152;2023-04-19T03:40:35;17.65;;;8.70;;
1949;SDS011;975;48.760;9.152;2023-04-19T03:43:02;17.27;;;9.00;;
1949;SDS011;975;48.760;9.152;2023-04-19T03:45:31;19.48;;;8.85;;
1949;SDS011;975;48.760;9.152;2023-04-19T03:47:59;18.75;;;8.95;;
1949;SDS011;975;48.760;9.152;2023-04-19T03:50:26;17.80;;;9.75;;
1949;SDS011;975;48.760;9.152;2023-04-19T03:52:54;22.25;;;9.88;;
1949;SDS011;975;48.760;9.152;2023-04-19T03:55:21;19.45;;;9.45;;
1949;SDS011;975;48.760;9.152;2023-04-19T03:57:49;17.58;;;9.18;;
1949;SDS011;975;48.760;9.152;2023-04-19T04:00:16;17.95;;;9.07;;
1949;SDS011;975;48.760;9.152;2023-04-19T04:02:45;24.08;;;11.07;;
1949;SDS011;975;48.760;9.152;2023-04-19T04:05:13;20.55;;;10.00;;
1949;SDS011;975;48.760;9.152;2023-04-19T04:07:40;20.83;;;10.15;;
1949;SDS011;975;48.760;9.152;2023-04-19T04:10:08;18.27;;;9.43;;
1949;SDS011;975;48.760;9.152;2023-04-19T04:12:36;20.92;;;9.95;;
1949;SDS011;975;48.760;9.152;2023-04-19T04:15:04;21.15;;;9.32;;
1949;SDS011;975;48.760;9.152;2023-04-19T04:17:32;21.05;;;10.60;;
1949;SDS011;975;48.760;9.152;2023-04-19T04:20:01;21.73;;;10.48;;
1949;SDS011;975;48.760;9.152;2023-04-19T04:22:30;22.98;;;10.18;;
1949;SDS011;975;48.760;9.152;2023-04-19T04:24:57;19.48;;;9.70;;
1949;SDS011;975;48.760;9.152;2023-04-19T04:27:25;19.98;;;9.40;;
1949;SDS011;975;48.760;9.152;2023-04-19T04:29:53;18.65;;;9.32;;
1949;SDS011;975;48.760;9.152;2023-04-19T04:32:21;19.75;;;9.50;;
1949;SDS011;975;48.760;9.152;2023-04-19T04:34:48;20.35;;;10.30;;
1949;SDS011;975;48.760;9.152;2023-04-19T04:37:17;20.30;;;9.93;;
1949;SDS011;975;48.760;9.152;2023-04-19T04:39:45;21.60;;;10.35;;
1949;SDS011;975;48.760;9.152;2023-04-19T04:42:12;20.48;;;9.80;;
1949;SDS011;975;48.760;9.152;2023-04-19T04:44:40;18.83;;;9.02;;
1949;SDS011;975;48.760;9.152;2023-04-19T04:47:11;20.00;;;9.68;;
1949;SDS011;975;48.760;9.152;2023-04-19T04:49:38;19.75;;;9.18;;
1949;SDS011;975;48.760;9.152;2023-04-19T04:52:06;22.05;;;9.63;;
1949;SDS011;975;48.760;9.152;2023-04-19T04:54:35;20.40;;;9.77;;
1949;SDS011;975;48.760;9.152;2023-04-19T04:57:02;21.75;;;10.40;;
1949;SDS011;975;48.760;9.152;2023-04-19T04:59:30;20.67;;;9.57;;
1949;SDS011;975;48.760;9.152;2023-04-19T05:01:57;19.67;;;10.05;;
1949;SDS011;975;48.760;9.152;2023-04-19T05:04:25;20.80;;;9.65;;
1949;SDS011;975;48.760;9.152;2023-04-19T05:06:52;17.80;;;9.10;;
1949;SDS011;975;48.760;9.152;2023-04-19T05:09:20;20.77;;;9.68;;
1949;SDS011;975;48.760;9.152;2023-04-19T05:11:52;17.90;;;9.63;;
1949;SDS011;975;48.760;9.152;2023-04-19T05:14:21;18.45;;;9.45;;
1949;SDS011;975;48.760;9.152;2023-04-19T05:16:51;20.10;;;10.35;;
1949;SDS011;975;48.760;9.152;2023-04-19T05:19:18;24.42;;;9.85;;
1949;SDS011;975;48.760;9.152;2023-04-19T05:21:46;22.77;;;11.23;;
1949;SDS011;975;48.760;9.152;2023-04-19T05:24:14;20.75;;;9.52;;
1949;SDS011;975;48.760;9.152;2023-04-19T05:26:41;20.85;;;10.07;;
1949;SDS011;975;48.760;9.152;2023-04-19T05:29:10;22.83;;;9.88;;
1949;SDS011;975;48.760;9.152;2023-04-19T05:31:38;19.02;;;9.23;;
1949;SDS011;975;48.760;9.152;2023-04-19T05:34:05;17.13;;;8.70;;
1949;SDS011;975;48.760;9.152;2023-04-19T05:36:34;18.83;;;9.13;;
1949;SDS011;975;48.760;9.152;2023-04-19T05:39:02;17.88;;;8.40;;
1949;SDS011;975;48.760;9.152;2023-04-19T05:41:29;18.33;;;9.38;;
1949;SDS011;975;48.760;9.152;2023-04-19T05:43:57;20.10;;;9.35;;
1949;SDS011;975;48.760;9.152;2023-04-19T05:46:26;18.27;;;8.98;;
1949;SDS011;975;48.760;9.152;2023-04-19T05:48:53;20.45;;;9.93;;
1949;SDS011;975;48.760;9.152;2023-04-19T05:51:21;16.95;;;9.10;;
1949;SDS011;975;48.760;9.152;2023-04-19T05:53:48;17.38;;;9.02;;
1949;SDS011;975;48.760;9.152;2023-04-19T05:56:15;17.52;;;9.48;;
1949;SDS011;975;48.760;9.152;2023-04-19T05:58:43;21.90;;;9.80;;
1949;SDS011;975;48.760;9.152;2023-04-19T06:01:11;22.35;;;9.57;;
1949;SDS011;975;48.760;9.152;2023-04-19T06:03:39;20.70;;;9.48;;
1949;SDS011;975;48.760;9.152;2023-04-19T06:06:07;18.45;;;9.20;;
1949;SDS011;975;48.760;9.152;2023-04-19T06:08:35;17.77;;;9.60;;
1949;SDS011;975;48.760;9.152;2023-04-19T06:11:02;20.73;;;10.07;;
1949;SDS011;975;48.760;9.152;2023-04-19T06:13:29;18.73;;;9.13;;
1949;SDS011;975;48.760;9.152;2023-04-19T06:15:57;17.90;;;9.27;;
1949;SDS011;975;48.760;9.152;2023-04-19T06:18:25;16.88;;;8.15;;
1949;SDS011;975;48.760;9.152;2023-04-19T06:20:54;21.27;;;10.48;;
1949;SDS011;975;48.760;9.152;2023-04-19T06:23:22;20.25;;;9.23;;
1949;SDS011;975;48.760;9.152;2023-04-19T06:25:50;20.45;;;9.55;;
1949;SDS011;975;48.760;9.152;2023-04-19T06:28:17;17.92;;;9.20;;
1949;SDS011;975;48.760;9.152;2023-04-19T06:30:45;19.17;;;10.05;;
1949;SDS011;975;48.760;9.152;2023-04-19T06:33:12;19.25;;;9.68;;
1949;SDS011;975;48.760;9.152;2023-04-19T06:35:40;17.90;;;8.82;;
1949;SDS011;975;48.760;9.152;2023-04-19T06:38:08;18.65;;;9.73;;
1949;SDS011;975;48.760;9.152;2023-04-19T06:40:36;17.67;;;10.07;;
1949;SDS011;975;48.760;9.152;2023-04-19T06:43:03;21.73;;;9.93;;
1949;SDS011;975;48.760;9.152;2023-04-19T06:45:31;18.20;;;9.38;;
1949;SDS011;975;48.760;9.152;2023-04-19T06:47:58;16.42;;;9.32;;
1949;SDS011;975;48.760;9.152;2023-04-19T06:50:26;17.50;;;9.25;;
1949;SDS011;975;48.760;9.152;2023-04-19T06:52:54;17.73;;;9.00;;
1949;SDS011;975;48.760;9.152;2023-04-19T06:55:23;17.75;;;8.77;;
1949;SDS011;975;48.760;9.152;2023-04-19T06:57:50;21.10;;;9.65;;
1949;SDS011;975;48.760;9.152;2023-04-19T07:00:18;20.80;;;9.07;;
1949;SDS011;975;48.760;9.152;2023-04-19T07:02:45;19.73;;;9.15;;
1949;SDS011;975;48.760;9.152;2023-04-19T07:05:13;18.35;;;8.68;;
1949;SDS011;975;48.760;9.152;2023-04-19T07:07:40;16.90;;;8.52;;
1949;SDS011;975;48.760;9.152;2023-04-19T07:10:08;14.40;;;7.88;;
1949;SDS011;975;48.760;9.152;2023-04-19T07:12:38;18.52;;;9.43;;
1949;SDS011;975;48.760;9.152;2023-04-19T07:15:06;15.23;;;7.97;;
1949;SDS011;975;48.760;9.152;2023-04-19T07:17:34;20.60;;;9.77;;
1949;SDS011;975;48.760;9.152;2023-04-19T07:20:02;16.42;;;8.13;;
1949;SDS011;975;48.760;9.152;2023-04-19T07:22:30;17.70;;;8.65;;
1949;SDS011;975;48.760;9.152;2023-04-19T07:24:58;19.42;;;9.20;;
1949;SDS011;975;48.760;9.152;2023-04-19T07:27:25;15.93;;;8.23;;
1949;SDS011;975;48.760;9.152;2023-04-19T07:29:54;18.02;;;8.95;;
1949;SDS011;975;48.760;9.152;2023-04-19T07:32:22;18.15;;;8.95;;
1949;SDS011;975;48.760;9.152;2023-04-19T07:34:49;16.55;;;9.32;;
1949;SDS011;975;48.760;9.152;2023-04-19T07:37:17;16.23;;;8.68;;
1949;SDS011;975;48.760;9.152;2023-04-19T07:39:44;17.25;;;8.05;;
1949;SDS011;975;48.760;9.152;2023-04-19T07:42:12;17.23;;;8.00;;
1949;SDS011;975;48.760;9.152;2023-04-19T07:44:40;16.85;;;9.02;;
1949;SDS011;975;48.760;9.152;2023-04-19T07:47:08;19.48;;;8.57;;
1949;SDS011;975;48.760;9.152;2023-04-19T07:49:36;16.75;;;8.68;;
1949;SDS011;975;48.760;9.152;2023-04-19T07:52:05;17.15;;;8.23;;
1949;SDS011;975;48.760;9.152;2023-04-19T07:54:33;13.30;;;6.80;;
1949;SDS011;975;48.760;9.152;2023-04-19T07:57:03;17.17;;;7.85;;
1949;SDS011;975;48.760;9.152;2023-04-19T07:59:31;17.58;;;8.90;;
1949;SDS011;975;48.760;9.152;2023-04-19T08:01:58;17.27;;;8.65;;
1949;SDS011;975;48.760;9.152;2023-04-19T08:04:27;14.25;;;7.75;;
1949;SDS011;975;48.760;9.152;2023-04-19T08:06:55;14.43;;;7.85;;
1949;SDS011;975;48.760;9.152;2023-04-19T08:09:22;16.70;;;8.20;;
1949;SDS011;975;48.760;9.152;2023-04-19T08:11:50;18.63;;;8.35;;
1949;SDS011;975;48.760;9.152;2023-04-19T08:14:18;15.75;;;8.40;;
1949;SDS011;975;48.760;9.152;2023-04-19T08:16:45;15.63;;;7.13;;
1949;SDS011;975;48.760;9.152;2023-04-19T08:19:12;14.32;;;6.78;;
1949;SDS011;975;48.760;9.152;2023-04-19T08:21:43;17.40;;;7.90;;
1949;SDS011;975;48.760;9.152;2023-04-19T08:24:10;15.07;;;7.78;;
1949;SDS011;975;48.760;9.152;2023-04-19T08:26:38;14.52;;;6.68;;
1949;SDS011;975;48.760;9.152;2023-04-19T08:29:07;11.75;;;6.47;;
1949;SDS011;975;48.760;9.152;2023-04-19T08:31:35;12.90;;;7.55;;
1949;SDS011;975;48.760;9.152;2023-04-19T08:34:02;11.38;;;6.55;;
1949;SDS011;975;48.760;9.152;2023-04-19T08:36:30;12.88;;;6.72;;
1949;SDS011;975;48.760;9.152;2023-04-19T08:38:59;12.55;;;6.82;;
1949;SDS011;975;48.760;9.152;2023-04-19T08:41:26;10.40;;;6.00;;
1949;SDS011;975;48.760;9.152;2023-04-19T08:43:56;8.82;;;5.22;;
1949;SDS011;975;48.760;9.152;2023-04-19T08:46:24;9.13;;;5.30;;
1949;SDS011;975;48.760;9.152;2023-04-19T08:48:52;10.60;;;6.10;;
1949;SDS011;975;48.760;9.152;2023-04-19T08:51:20;12.45;;;6.57;;
1949;SDS011;975;48.760;9.152;2023-04-19T08:53:48;11.05;;;4.90;;
1949;SDS011;975;48.760;9.152;2023-04-19T08:56:17;10.90;;;6.00;;
1949;SDS011;975;48.760;9.152;2023-04-19T08:58:45;10.57;;;6.05;;
1949;SDS011;975;48.760;9.152;2023-04-19T09:01:13;12.75;;;7.00;;
1949;SDS011;975;48.760;9.152;2023-04-19T09:03:41;10.20;;;6.30;;
1949;SDS011;975;48.760;9.152;2023-04-19T09:06:10;12.93;;;5.85;;
1949;SDS011;975;48.760;9.152;2023-04-19T09:08:38;11.63;;;6.03;;
1949;SDS011;975;48.760;9.152;2023-04-19T09:11:06;12.45;;;6.03;;
1949;SDS011;975;48.760;9.152;2023-04-19T09:13:35;10.63;;;6.25;;
1949;SDS011;975;48.760;9.152;2023-04-19T09:16:05;11.50;;;5.95;;
1949;SDS011;975;48.760;9.152;2023-04-19T09:18:33;12.23;;;5.78;;
1949;SDS011;975;48.760;9.152;2023-04-19T09:21:26;10.77;;;5.97;;
1949;SDS011;975;48.760;9.152;2023-04-19T09:23:53;14.25;;;6.13;;
1949;SDS011;975;48.760;9.152;2023-04-19T09:26:21;10.20;;;5.38;;
1949;SDS011;975;48.760;9.152;2023-04-19T09:28:55;11.68;;;6.18;;
1949;SDS011;975;48.760;9.152;2023-04-19T09:31:23;14.07;;;5.97;;
1949;SDS011;975;48.760;9.152;2023-04-19T09:33:52;11.48;;;6.45;;
1949;SDS011;975;48.760;9.152;2023-04-19T09:36:26;12.98;;;6.57;;
1949;SDS011;975;48.760;9.152;2023-04-19T09:38:55;11.80;;;6.30;;
1949;SDS011;975;48.760;9.152;2023-04-19T09:41:22;10.23;;;6.05;;
1949;SDS011;975;48.760;9.152;2023-04-19T09:43:50;14.93;;;6.72;;
1949;SDS011;975;48.760;9.152;2023-04-19T09:46:32;11.73;;;7.03;;
1949;SDS011;975;48.760;9.152;2023-04-19T09:49:15;11.43;;;6.30;;
1949;SDS011;975;48.760;9.152;2023-04-19T09:51:44;12.68;;;7.13;;
1949;SDS011;975;48.760;9.152;2023-04-19T09:54:13;12.07;;;6.70;;
1949;SDS011;975;48.760;9.152;2023-04-19T09:56:40;10.60;;;6.40;;
1949;SDS011;975;48.760;9.152;2023-04-19T09:59:08;13.30;;;6.57;;
1949;SDS011;975;48.760;9.152;2023-04-19T10:01:39;17.17;;;7.63;;
1949;SDS011;975;48.760;9.152;2023-04-19T10:04:09;13.50;;;6.70;;
1949;SDS011;975;48.760;9.152;2023-04-19T10:06:37;11.43;;;6.70;;
1949;SDS011;975;48.760;9.152;2023-04-19T10:09:05;11.00;;;6.07;;
1949;SDS011;975;48.760;9.152;2023-04-19T10:11:33;10.70;;;6.13;;
1949;SDS011;975;48.760;9.152;2023-04-19T10:14:05;10.95;;;5.85;;
1949;SDS011;975;48.760;9.152;2023-04-19T10:16:32;11.95;;;6.00;;
1949;SDS011;975;48.760;9.152;2023-04-19T10:19:03;11.63;;;6.30;;
1949;SDS011;975;48.760;9.152;2023-04-19T10:21:32;9.98;;;5.57;;
1949;SDS011;975;48.760;9.152;2023-04-19T10:24:00;11.60;;;5.90;;
1949;SDS011;975;48.760;9.152;2023-04-19T10:26:27;13.07;;;6.60;;
1949;SDS011;975;48.760;9.152;2023-04-19T10:28:55;12.02;;;6.35;;
1949;SDS011;975;48.760;9.152;2023-04-19T10:31:24;10.43;;;5.72;;
1949;SDS011;975;48.760;9.152;2023-04-19T10:33:51;13.10;;;6.72;;
1949;SDS011;975;48.760;9.152;2023-04-19T10:36:20;31.45;;;10.52;;
1949;SDS011;975;48.760;9.152;2023-04-19T10:38:48;11.70;;;6.20;;
1949;SDS011;975;48.760;9.152;2023-04-19T10:41:18;13.70;;;6.40;;
1949;SDS011;975;48.760;9.152;2023-04-19T10:43:46;12.55;;;6.13;;
1949;SDS011;975;48.760;9.152;2023-04-19T10:46:15;11.95;;;6.22;;
1949;SDS011;975;48.760;9.152;2023-04-19T10:48:49;11.60;;;6.32;;
1949;SDS011;975;48.760;9.152;2023-04-19T10:51:21;11.63;;;6.47;;
1949;SDS011;975;48.760;9.152;2023-04-19T10:53:53;13.57;;;7.30;;
1949;SDS011;975;48.760;9.152;2023-04-19T10:56:21;12.88;;;6.63;;
1949;SDS011;975;48.760;9.152;2023-04-19T11:01:37;14.63;;;6.50;;
1949;SDS011;975;48.760;9.152;2023-04-19T11:04:05;10.48;;;6.22;;
1949;SDS011;975;48.760;9.152;2023-04-19T11:06:34;12.55;;;6.45;;
1949;SDS011;975;48.760;9.152;2023-04-19T11:09:02;12.20;;;6.75;;
1949;SDS011;975;48.760;9.152;2023-04-19T11:11:34;12.15;;;6.75;;
1949;SDS011;975;48.760;9.152;2023-04-19T11:14:02;12.90;;;6.38;;
1949;SDS011;975;48.760;9.152;2023-04-19T11:16:30;14.23;;;6.32;;
1949;SDS011;975;48.760;9.152;2023-04-19T11:18:57;13.50;;;7.05;;
1949;SDS011;975;48.760;9.152;2023-04-19T11:21:25;11.88;;;5.88;;
1949;SDS011;975;48.760;9.152;2023-04-19T11:24:06;10.70;;;5.90;;
1949;SDS011;975;48.760;9.152;2023-04-19T11:26:33;9.98;;;6.15;;
1949;SDS011;975;48.760;9.152;2023-04-19T11:29:01;12.50;;;6.40;;
1949;SDS011;975;48.760;9.152;2023-04-19T11:31:31;12.48;;;6.70;;
1949;SDS011;975;48.760;9.152;2023-04-19T11:33:58;11.15;;;6.63;;
1949;SDS011;975;48.760;9.152;2023-04-19T11:36:26;12.57;;;6.90;;
1949;SDS011;975;48.760;9.152;2023-04-19T11:38:54;13.57;;;7.18;;
1949;SDS011;975;48.760;9.152;2023-04-19T11:41:23;13.25;;;7.18;;
1949;SDS011;975;48.760;9.152;2023-04-19T11:43:50;12.35;;;6.72;;
1949;SDS011;975;48.760;9.152;2023-04-19T11:46:18;11.88;;;6.72;;
1949;SDS011;975;48.760;9.152;2023-04-19T11:48:49;13.02;;;6.90;;
1949;SDS011;975;48.760;9.152;2023-04-19T11:51:17;12.98;;;6.50;;
1949;SDS011;975;48.760;9.152;2023-04-19T11:53:45;15.18;;;7.25;;
1949;SDS011;975;48.760;9.152;2023-04-19T11:56:12;18.88;;;7.63;;
1949;SDS011;975;48.760;9.152;2023-04-19T11:58:42;14.15;;;7.43;;
1949;SDS011;975;48.760;9.152;2023-04-19T12:01:13;17.25;;;7.80;;
1949;SDS011;975;48.760;9.152;2023-04-19T12:03:43;16.02;;;7.53;;
1949;SDS011;975;48.760;9.152;2023-04-19T12:06:11;14.35;;;6.85;;
1949;SDS011;975;48.760;9.152;2023-04-19T12:08:41;17.13;;;8.98;;
1949;SDS011;975;48.760;9.152;2023-04-19T12:11:09;18.50;;;9.02;;
1949;SDS011;975;48.760;9.152;2023-04-19T12:13:36;17.42;;;9.35;;
1949;SDS011;975;48.760;9.152;2023-04-19T12:16:06;18.58;;;9.75;;
1949;SDS011;975;48.760;9.152;2023-04-19T12:18:41;18.23;;;9.80;;
1949;SDS011;975;48.760;9.152;2023-04-19T12:21:10;17.77;;;9.25;;
1949;SDS011;975;48.760;9.152;2023-04-19T12:23:38;17.30;;;9.35;;
1949;SDS011;975;48.760;9.152;2023-04-19T12:26:05;23.05;;;10.55;;
1949;SDS011;975;48.760;9.152;2023-04-19T12:28:33;26.65;;;10.32;;
1949;SDS011;975;48.760;9.152;2023-04-19T12:31:00;22.98;;;11.07;;
1949;SDS011;975;48.760;9.152;2023-04-19T12:33:30;22.67;;;10.00;;
1949;SDS011;975;48.760;9.152;2023-04-19T12:35:58;22.15;;;11.32;;
1949;SDS011;975;48.760;9.152;2023-04-19T12:38:25;21.17;;;10.75;;
1949;SDS011;975;48.760;9.152;2023-04-19T12:40:53;23.70;;;11.85;;
1949;SDS011;975;48.760;9.152;2023-04-19T12:43:21;24.80;;;11.82;;
1949;SDS011;975;48.760;9.152;2023-04-19T12:45:48;25.52;;;11.27;;
1949;SDS011;975;48.760;9.152;2023-04-19T12:48:16;26.92;;;12.57;;
1949;SDS011;975;48.760;9.152;2023-04-19T12:50:45;24.95;;;11.27;;
1949;SDS011;975;48.760;9.152;2023-04-19T12:53:13;24.70;;;11.93;;
1949;SDS011;975;48.760;9.152;2023-04-19T12:55:40;24.85;;;12.52;;
1949;SDS011;975;48.760;9.152;2023-04-19T12:58:11;27.05;;;12.23;;
1949;SDS011;975;48.760;9.152;2023-04-19T13:00:39;22.92;;;11.43;;
1949;SDS011;975;48.760;9.152;2023-04-19T13:03:07;22.35;;;11.48;;
1949;SDS011;975;48.760;9.152;2023-04-19T13:05:35;25.35;;;12.00;;
1949;SDS011;975;48.760;9.152;2023-04-19T13:08:04;23.95;;;11.48;;
1949;SDS011;975;48.760;9.152;2023-04-19T13:10:32;28.10;;;11.10;;
1949;SDS011;975;48.760;9.152;2023-04-19T13:12:59;26.30;;;12.02;;
1949;SDS011;975;48.760;9.152;2023-04-19T13:15:27;22.80;;;11.80;;
1949;SDS011;975;48.760;9.152;2023-04-19T13:17:55;27.80;;;12.13;;
1949;SDS011;975;48.760;9.152;2023-04-19T13:20:22;25.42;;;10.93;;
1949;SDS011;975;48.760;9.152;2023-04-19T13:22:49;23.15;;;10.68;;
1949;SDS011;975;48.760;9.152;2023-04-19T13:25:19;20.67;;;10.05;;
1949;SDS011;975;48.760;9.152;2023-04-19T13:27:46;22.75;;;10.60;;
1949;SDS011;975;48.760;9.152;2023-04-19T13:30:16;19.20;;;10.00;;
1949;SDS011;975;48.760;9.152;2023-04-19T13:32:43;21.48;;;9.70;;
1949;SDS011;975;48.760;9.152;2023-04-19T13:35:11;21.75;;;10.10;;
1949;SDS011;975;48.760;9.152;2023-04-19T13:37:38;23.88;;;10.43;;
1949;SDS011;975;48.760;9.152;2023-04-19T13:40:09;20.90;;;9.73;;
1949;SDS011;975;48.760;9.152;2023-04-19T13:42:38;19.27;;;9.13;;
1949;SDS011;975;48.760;9.152;2023-04-19T13:45:05;19.30;;;9.35;;
1949;SDS011;975;48.760;9.152;2023-04-19T13:47:34;17.13;;;8.43;;
1949;SDS011;975;48.760;9.152;2023-04-19T13:50:01;17.05;;;9.32;;
1949;SDS011;975;48.760;9.152;2023-04-19T13:52:29;46.75;;;22.35;;
1949;SDS011;975;48.760;9.152;2023-04-19T13:54:56;14.25;;;7.97;;
1949;SDS011;975;48.760;9.152;2023-04-19T13:57:24;18.67;;;8.82;;
1949;SDS011;975;48.760;9.152;2023-04-19T13:59:53;16.50;;;8.60;;
1949;SDS011;975;48.760;9.152;2023-04-19T14:02:20;17.38;;;8.40;;
1949;SDS011;975;48.760;9.152;2023-04-19T14:04:48;15.93;;;8.93;;
1949;SDS011;975;48.760;9.152;2023-04-19T14:07:15;18.30;;;8.93;;
1949;SDS011;975;48.760;9.152;2023-04-19T14:09:43;20.73;;;9.13;;
1949;SDS011;975;48.760;9.152;2023-04-19T14:12:11;19.52;;;9.38;;
1949;SDS011;975;48.760;9.152;2023-04-19T14:14:38;13.88;;;8.23;;
1949;SDS011;975;48.760;9.152;2023-04-19T14:17:07;17.50;;;8.23;;
1949;SDS011;975;48.760;9.152;2023-04-19T14:19:35;14.35;;;7.88;;
1949;SDS011;975;48.760;9.152;2023-04-19T14:22:02;14.93;;;7.38;;
1949;SDS011;975;48.760;9.152;2023-04-19T14:24:30;14.88;;;7.65;;
1949;SDS011;975;48.760;9.152;2023-04-19T14:26:58;13.93;;;7.68;;
1949;SDS011;975;48.760;9.152;2023-04-19T14:29:25;19.50;;;8.63;;
1949;SDS011;975;48.760;9.152;2023-04-19T14:31:53;13.95;;;7.85;;
1949;SDS011;975;48.760;9.152;2023-04-19T14:34:24;16.75;;;8.10;;
1949;SDS011;975;48.760;9.152;2023-04-19T14:36:52;15.68;;;8.10;;
1949;SDS011;975;48.760;9.152;2023-04-19T14:39:19;14.80;;;7.95;;
1949;SDS011;975;48.760;9.152;2023-04-19T14:41:47;17.73;;;7.82;;
1949;SDS011;975;48.760;9.152;2023-04-19T14:44:14;14.85;;;7.30;;
1949;SDS011;975;48.760;9.152;2023-04-19T14:46:42;13.75;;;7.47;;
1949;SDS011;975;48.760;9.152;2023-04-19T14:49:10;12.98;;;7.00;;
1949;SDS011;975;48.760;9.152;2023-04-19T14:51:39;13.23;;;7.13;;
1949;SDS011;975;48.760;9.152;2023-04-19T14:54:07;12.57;;;7.03;;
1949;SDS011;975;48.760;9.152;2023-04-19T14:56:35;13.57;;;7.30;;
1949;SDS011;975;48.760;9.152;2023-04-19T14:59:03;13.80;;;7.30;;
1949;SDS011;975;48.760;9.152;2023-04-19T15:01:31;13.27;;;7.63;;
1949;SDS011;975;48.760;9.152;2023-04-19T15:03:59;13.73;;;7.10;;
1949;SDS011;975;48.760;9.152;2023-04-19T15:06:27;11.18;;;7.07;;
1949;SDS011;975;48.760;9.152;2023-04-19T15:08:56;12.60;;;6.78;;
1949;SDS011;975;48.760;9.152;2023-04-19T15:11:24;13.43;;;7.22;;
1949;SDS011;975;48.760;9.152;2023-04-19T15:13:51;15.05;;;7.60;;
1949;SDS011;975;48.760;9.152;2023-04-19T15:16:19;14.38;;;7.50;;
1949;SDS011;975;48.760;9.152;2023-04-19T15:18:46;12.70;;;6.78;;
1949;SDS011;975;48.760;9.152;2023-04-19T15:21:14;13.90;;;6.65;;
1949;SDS011;975;48.760;9.152;2023-04-19T15:23:42;13.15;;;6.90;;
1949;SDS011;975;48.760;9.152;2023-04-19T15:26:11;11.52;;;7.07;;
1949;SDS011;975;48.760;9.152;2023-04-19T15:28:38;11.95;;;6.35;;